sensor_id;sensor_type;location;lat;lon;timestamp;P1;durP1;ratioP1;P2;durP2;ratioP2
71503;SDS011;59323;50.874;7.028;2023-06-01T00:01:27;6.60;;;2.33;;
71503;SDS011;59323;50.874;7.028;2023-06-01T00:03:58;6.90;;;2.25;;
71503;SDS011;59323;50.874;7.028;2023-06-01T00:06:24;6.88;;;1.85;;
71503;SDS011;59323;50.874;7.028;2023-06-01T00:08:53;7.13;;;2.15;;
71503;SDS011;59323;50.874;7.028;2023-06-01T00:11:18;7.33;;;2.37;;
71503;SDS011;59323;50.874;7.028;2023-06-01T00:13:44;5.90;;;1.80;;
71503;SDS011;59323;50.874;7.028;2023-06-01T00:16:10;6.25;;;2.10;;
71503;SDS011;59323;50.874;7.028;2023-06-01T00:18:37;5.05;;;2.20;;
71503;SDS011;59323;50.874;7.028;2023-06-01T00:21:03;5.30;;;2.27;;
71503;SDS011;59323;50.874;7.028;2023-06-01T00:23:28;5.63;;;2.00;;
71503;SDS011;59323;50.874;7.028;2023-06-01T00:25:53;8.50;;;2.47;;
71503;SDS011;59323;50.874;7.028;2023-06-01T00:28:19;6.80;;;2.07;;
71503;SDS011;59323;50.874;7.028;2023-06-01T00:30:44;6.53;;;2.20;;
71503;SDS011;59323;50.874;7.028;2023-06-01T00:33:10;5.85;;;2.17;;
71503;SDS011;59323;50.874;7.028;2023-06-01T00:35:35;4.97;;;2.07;;
71503;SDS011;59323;50.874;7.028;2023-06-01T00:38:00;5.67;;;1.90;;
71503;SDS011;59323;50.874;7.028;2023-06-01T00:40:26;7.43;;;2.10;;
71503;SDS011;59323;50.874;7.028;2023-06-01T00:42:51;6.77;;;2.07;;
71503;SDS011;59323;50.874;7.028;2023-06-01T00:45:16;5.13;;;2.00;;
71503;SDS011;59323;50.874;7.028;2023-06-01T00:47:45;6.68;;;1.98;;
71503;SDS011;59323;50.874;7.028;2023-06-01T00:50:11;4.78;;;1.92;;
71503;SDS011;59323;50.874;7.028;2023-06-01T00:52:37;6.57;;;2.33;;
71503;SDS011;59323;50.874;7.028;2023-06-01T00:55:04;6.45;;;2.30;;
71503;SDS011;59323;50.874;7.028;2023-06-01T00:57:30;5.43;;;2.00;;
71503;SDS011;59323;50.874;7.028;2023-06-01T00:59:55;4.68;;;1.85;;
71503;SDS011;59323;50.874;7.028;2023-06-01T01:02:22;6.30;;;2.17;;
71503;SDS011;59323;50.874;7.028;2023-06-01T01:04:48;6.38;;;1.92;;
71503;SDS011;59323;50.874;7.028;2023-06-01T01:15:53;5.60;;;2.05;;
71503;SDS011;59323;50.874;7.028;2023-06-01T01:18:33;6.35;;;1.90;;
71503;SDS011;59323;50.874;7.028;2023-06-01T01:21:02;5.47;;;1.85;;
71503;SDS011;59323;50.874;7.028;2023-06-01T01:26:54;5.17;;;1.80;;
71503;SDS011;59323;50.874;7.028;2023-06-01T01:29:29;6.72;;;2.00;;
71503;SDS011;59323;50.874;7.028;2023-06-01T01:31:56;6.97;;;2.15;;
71503;SDS011;59323;50.874;7.028;2023-06-01T01:34:25;4.65;;;1.90;;
71503;SDS011;59323;50.874;7.028;2023-06-01T01:36:54;6.15;;;1.85;;
71503;SDS011;59323;50.874;7.028;2023-06-01T01:39:19;4.67;;;1.90;;
71503;SDS011;59323;50.874;7.028;2023-06-01T01:41:45;6.75;;;2.72;;
71503;SDS011;59323;50.874;7.028;2023-06-01T01:44:10;6.53;;;1.77;;
71503;SDS011;59323;50.874;7.028;2023-06-01T01:46:40;5.87;;;1.80;;
71503;SDS011;59323;50.874;7.028;2023-06-01T01:54:53;7.07;;;2.00;;
71503;SDS011;59323;50.874;7.028;2023-06-01T01:57:21;9.45;;;2.20;;
71503;SDS011;59323;50.874;7.028;2023-06-01T01:59:48;7.70;;;2.67;;
71503;SDS011;59323;50.874;7.028;2023-06-01T02:02:14;4.43;;;2.20;;
71503;SDS011;59323;50.874;7.028;2023-06-01T02:04:41;5.80;;;2.10;;
71503;SDS011;59323;50.874;7.028;2023-06-01T02:07:07;4.47;;;1.83;;
71503;SDS011;59323;50.874;7.028;2023-06-01T02:09:33;4.57;;;1.70;;
71503;SDS011;59323;50.874;7.028;2023-06-01T02:11:58;4.93;;;1.90;;
71503;SDS011;59323;50.874;7.028;2023-06-01T02:14:23;6.83;;;1.90;;
71503;SDS011;59323;50.874;7.028;2023-06-01T02:16:49;5.80;;;2.07;;
71503;SDS011;59323;50.874;7.028;2023-06-01T02:19:15;5.43;;;1.92;;
71503;SDS011;59323;50.874;7.028;2023-06-01T02:21:41;6.17;;;2.00;;
71503;SDS011;59323;50.874;7.028;2023-06-01T02:24:07;6.83;;;1.87;;
71503;SDS011;59323;50.874;7.028;2023-06-01T02:26:34;5.07;;;2.00;;
71503;SDS011;59323;50.874;7.028;2023-06-01T02:28:59;6.85;;;1.92;;
71503;SDS011;59323;50.874;7.028;2023-06-01T02:31:27;6.80;;;2.03;;
71503;SDS011;59323;50.874;7.028;2023-06-01T02:33:53;7.57;;;2.00;;
71503;SDS011;59323;50.874;7.028;2023-06-01T02:36:18;6.10;;;2.20;;
71503;SDS011;59323;50.874;7.028;2023-06-01T02:38:43;5.90;;;2.00;;
71503;SDS011;59323;50.874;7.028;2023-06-01T02:41:09;6.67;;;2.23;;
71503;SDS011;59323;50.874;7.028;2023-06-01T02:43:34;3.80;;;1.60;;
71503;SDS011;59323;50.874;7.028;2023-06-01T02:46:03;5.50;;;1.87;;
71503;SDS011;59323;50.874;7.028;2023-06-01T02:48:28;6.23;;;1.70;;
71503;SDS011;59323;50.874;7.028;2023-06-01T02:50:54;6.07;;;2.43;;
71503;SDS011;59323;50.874;7.028;2023-06-01T02:53:20;7.25;;;2.33;;
71503;SDS011;59323;50.874;7.028;2023-06-01T02:55:45;7.00;;;1.63;;
71503;SDS011;59323;50.874;7.028;2023-06-01T02:58:11;7.50;;;2.20;;
71503;SDS011;59323;50.874;7.028;2023-06-01T03:00:41;6.97;;;1.80;;
71503;SDS011;59323;50.874;7.028;2023-06-01T03:03:07;6.63;;;2.13;;
71503;SDS011;59323;50.874;7.028;2023-06-01T03:05:32;6.50;;;2.10;;
71503;SDS011;59323;50.874;7.028;2023-06-01T03:07:58;4.80;;;1.90;;
71503;SDS011;59323;50.874;7.028;2023-06-01T03:10:23;4.90;;;2.10;;
71503;SDS011;59323;50.874;7.028;2023-06-01T03:12:49;5.80;;;1.83;;
71503;SDS011;59323;50.874;7.028;2023-06-01T03:15:15;8.67;;;2.40;;
71503;SDS011;59323;50.874;7.028;2023-06-01T03:17:40;9.13;;;2.20;;
71503;SDS011;59323;50.874;7.028;2023-06-01T03:20:06;7.90;;;2.50;;
71503;SDS011;59323;50.874;7.028;2023-06-01T03:22:39;6.77;;;2.50;;
71503;SDS011;59323;50.874;7.028;2023-06-01T03:25:11;7.63;;;2.72;;
71503;SDS011;59323;50.874;7.028;2023-06-01T03:27:40;4.75;;;1.80;;
71503;SDS011;59323;50.874;7.028;2023-06-01T03:30:07;6.38;;;2.10;;
71503;SDS011;59323;50.874;7.028;2023-06-01T03:32:39;6.55;;;2.20;;
71503;SDS011;59323;50.874;7.028;2023-06-01T03:35:06;6.33;;;2.30;;
71503;SDS011;59323;50.874;7.028;2023-06-01T03:37:36;5.95;;;1.90;;
71503;SDS011;59323;50.874;7.028;2023-06-01T03:40:03;7.55;;;2.35;;
71503;SDS011;59323;50.874;7.028;2023-06-01T03:42:45;5.07;;;2.03;;
71503;SDS011;59323;50.874;7.028;2023-06-01T03:45:13;9.38;;;2.38;;
71503;SDS011;59323;50.874;7.028;2023-06-01T03:47:40;7.93;;;2.90;;
71503;SDS011;59323;50.874;7.028;2023-06-01T03:50:06;7.13;;;2.50;;
71503;SDS011;59323;50.874;7.028;2023-06-01T03:52:34;7.35;;;2.97;;
71503;SDS011;59323;50.874;7.028;2023-06-01T03:55:00;7.80;;;2.33;;
71503;SDS011;59323;50.874;7.028;2023-06-01T03:57:27;9.38;;;2.42;;
71503;SDS011;59323;50.874;7.028;2023-06-01T03:59:52;6.87;;;2.40;;
71503;SDS011;59323;50.874;7.028;2023-06-01T04:02:18;6.95;;;2.05;;
71503;SDS011;59323;50.874;7.028;2023-06-01T04:04:44;7.73;;;2.37;;
71503;SDS011;59323;50.874;7.028;2023-06-01T04:07:11;7.80;;;3.00;;
71503;SDS011;59323;50.874;7.028;2023-06-01T04:09:39;9.13;;;2.50;;
71503;SDS011;59323;50.874;7.028;2023-06-01T04:12:05;7.10;;;2.38;;
71503;SDS011;59323;50.874;7.028;2023-06-01T04:14:31;10.20;;;2.40;;
71503;SDS011;59323;50.874;7.028;2023-06-01T04:16:56;8.27;;;2.67;;
71503;SDS011;59323;50.874;7.028;2023-06-01T04:19:21;8.43;;;2.70;;
71503;SDS011;59323;50.874;7.028;2023-06-01T04:21:47;9.48;;;2.55;;
71503;SDS011;59323;50.874;7.028;2023-06-01T04:24:15;8.43;;;2.70;;
71503;SDS011;59323;50.874;7.028;2023-06-01T04:26:41;10.13;;;2.78;;
71503;SDS011;59323;50.874;7.028;2023-06-01T04:29:06;9.13;;;3.00;;
71503;SDS011;59323;50.874;7.028;2023-06-01T04:31:33;8.77;;;2.60;;
71503;SDS011;59323;50.874;7.028;2023-06-01T04:33:59;10.60;;;3.07;;
71503;SDS011;59323;50.874;7.028;2023-06-01T04:36:27;10.63;;;2.85;;
71503;SDS011;59323;50.874;7.028;2023-06-01T04:38:57;12.57;;;3.03;;
71503;SDS011;59323;50.874;7.028;2023-06-01T04:41:23;10.30;;;3.25;;
71503;SDS011;59323;50.874;7.028;2023-06-01T04:44:11;11.63;;;3.63;;
71503;SDS011;59323;50.874;7.028;2023-06-01T04:46:38;9.85;;;3.55;;
71503;SDS011;59323;50.874;7.028;2023-06-01T04:49:04;9.05;;;3.60;;
71503;SDS011;59323;50.874;7.028;2023-06-01T04:51:30;9.80;;;3.57;;
71503;SDS011;59323;50.874;7.028;2023-06-01T04:53:56;12.20;;;4.10;;
71503;SDS011;59323;50.874;7.028;2023-06-01T04:56:22;9.63;;;3.43;;
71503;SDS011;59323;50.874;7.028;2023-06-01T04:58:50;11.30;;;3.67;;
71503;SDS011;59323;50.874;7.028;2023-06-01T05:01:16;10.43;;;3.53;;
71503;SDS011;59323;50.874;7.028;2023-06-01T05:03:43;12.88;;;4.28;;
71503;SDS011;59323;50.874;7.028;2023-06-01T05:06:10;11.60;;;3.87;;
71503;SDS011;59323;50.874;7.028;2023-06-01T05:08:38;13.35;;;4.28;;
71503;SDS011;59323;50.874;7.028;2023-06-01T05:11:04;15.35;;;4.13;;
71503;SDS011;59323;50.874;7.028;2023-06-01T05:13:29;12.43;;;4.53;;
71503;SDS011;59323;50.874;7.028;2023-06-01T05:15:58;12.77;;;4.60;;
71503;SDS011;59323;50.874;7.028;2023-06-01T05:18:23;12.47;;;4.00;;
71503;SDS011;59323;50.874;7.028;2023-06-01T05:20:48;11.75;;;4.10;;
71503;SDS011;59323;50.874;7.028;2023-06-01T05:23:14;17.03;;;4.60;;
71503;SDS011;59323;50.874;7.028;2023-06-01T05:25:39;16.57;;;5.33;;
71503;SDS011;59323;50.874;7.028;2023-06-01T05:28:04;12.23;;;4.60;;
71503;SDS011;59323;50.874;7.028;2023-06-01T05:30:30;11.87;;;4.60;;
71503;SDS011;59323;50.874;7.028;2023-06-01T05:32:55;11.60;;;4.07;;
71503;SDS011;59323;50.874;7.028;2023-06-01T05:35:21;11.27;;;5.03;;
71503;SDS011;59323;50.874;7.028;2023-06-01T05:37:46;10.93;;;4.50;;
71503;SDS011;59323;50.874;7.028;2023-06-01T05:40:11;12.47;;;4.53;;
71503;SDS011;59323;50.874;7.028;2023-06-01T05:42:37;15.63;;;5.10;;
71503;SDS011;59323;50.874;7.028;2023-06-01T05:45:03;11.37;;;4.67;;
71503;SDS011;59323;50.874;7.028;2023-06-01T05:47:28;13.30;;;5.13;;
71503;SDS011;59323;50.874;7.028;2023-06-01T05:49:53;13.43;;;5.00;;
71503;SDS011;59323;50.874;7.028;2023-06-01T05:52:19;17.73;;;5.43;;
71503;SDS011;59323;50.874;7.028;2023-06-01T05:54:44;9.93;;;4.73;;
71503;SDS011;59323;50.874;7.028;2023-06-01T05:57:10;11.50;;;4.57;;
71503;SDS011;59323;50.874;7.028;2023-06-01T05:59:35;13.03;;;5.43;;
71503;SDS011;59323;50.874;7.028;2023-06-01T06:02:00;16.10;;;6.33;;
71503;SDS011;59323;50.874;7.028;2023-06-01T06:04:26;15.20;;;5.87;;
71503;SDS011;59323;50.874;7.028;2023-06-01T06:06:51;16.40;;;6.53;;
71503;SDS011;59323;50.874;7.028;2023-06-01T06:09:17;14.60;;;6.15;;
71503;SDS011;59323;50.874;7.028;2023-06-01T06:11:43;14.87;;;6.30;;
71503;SDS011;59323;50.874;7.028;2023-06-01T06:14:09;15.90;;;6.70;;
71503;SDS011;59323;50.874;7.028;2023-06-01T06:16:36;14.23;;;5.72;;
71503;SDS011;59323;50.874;7.028;2023-06-01T06:19:02;16.53;;;6.63;;
71503;SDS011;59323;50.874;7.028;2023-06-01T06:21:27;18.77;;;8.33;;
71503;SDS011;59323;50.874;7.028;2023-06-01T06:23:52;19.60;;;8.02;;
71503;SDS011;59323;50.874;7.028;2023-06-01T06:26:23;17.10;;;8.27;;
71503;SDS011;59323;50.874;7.028;2023-06-01T06:28:51;20.67;;;10.02;;
71503;SDS011;59323;50.874;7.028;2023-06-01T06:31:16;23.30;;;10.50;;
71503;SDS011;59323;50.874;7.028;2023-06-01T06:33:41;22.92;;;9.43;;
71503;SDS011;59323;50.874;7.028;2023-06-01T06:36:07;21.37;;;8.80;;
71503;SDS011;59323;50.874;7.028;2023-06-01T06:38:32;19.73;;;8.77;;
71503;SDS011;59323;50.874;7.028;2023-06-01T06:40:58;22.30;;;10.00;;
71503;SDS011;59323;50.874;7.028;2023-06-01T06:43:23;21.70;;;9.82;;
71503;SDS011;59323;50.874;7.028;2023-06-01T06:45:49;24.92;;;9.73;;
71503;SDS011;59323;50.874;7.028;2023-06-01T06:48:15;23.53;;;10.80;;
71503;SDS011;59323;50.874;7.028;2023-06-01T06:50:40;23.70;;;9.80;;
71503;SDS011;59323;50.874;7.028;2023-06-01T06:53:09;19.15;;;8.90;;
71503;SDS011;59323;50.874;7.028;2023-06-01T06:55:34;24.50;;;10.80;;
71503;SDS011;59323;50.874;7.028;2023-06-01T06:58:00;23.57;;;10.20;;
71503;SDS011;59323;50.874;7.028;2023-06-01T07:00:25;22.05;;;10.00;;
71503;SDS011;59323;50.874;7.028;2023-06-01T07:02:52;22.92;;;10.82;;
71503;SDS011;59323;50.874;7.028;2023-06-01T07:05:17;23.67;;;10.60;;
71503;SDS011;59323;50.874;7.028;2023-06-01T07:07:43;26.00;;;11.10;;
71503;SDS011;59323;50.874;7.028;2023-06-01T07:10:09;22.40;;;9.77;;
71503;SDS011;59323;50.874;7.028;2023-06-01T07:12:35;21.15;;;9.73;;
71503;SDS011;59323;50.874;7.028;2023-06-01T07:15:01;22.17;;;9.93;;
71503;SDS011;59323;50.874;7.028;2023-06-01T07:17:26;25.10;;;11.50;;
71503;SDS011;59323;50.874;7.028;2023-06-01T07:19:52;20.13;;;10.63;;
71503;SDS011;59323;50.874;7.028;2023-06-01T07:22:17;23.67;;;10.45;;
71503;SDS011;59323;50.874;7.028;2023-06-01T07:24:42;24.40;;;10.60;;
71503;SDS011;59323;50.874;7.028;2023-06-01T07:27:10;21.85;;;11.00;;
71503;SDS011;59323;50.874;7.028;2023-06-01T07:29:36;22.93;;;11.03;;
71503;SDS011;59323;50.874;7.028;2023-06-01T07:32:01;25.95;;;11.43;;
71503;SDS011;59323;50.874;7.028;2023-06-01T07:34:27;25.90;;;10.57;;
71503;SDS011;59323;50.874;7.028;2023-06-01T07:36:52;21.57;;;11.13;;
71503;SDS011;59323;50.874;7.028;2023-06-01T07:39:18;23.95;;;11.45;;
71503;SDS011;59323;50.874;7.028;2023-06-01T07:41:44;22.50;;;11.18;;
71503;SDS011;59323;50.874;7.028;2023-06-01T07:44:10;24.03;;;11.10;;
71503;SDS011;59323;50.874;7.028;2023-06-01T07:46:41;24.20;;;11.63;;
71503;SDS011;59323;50.874;7.028;2023-06-01T07:49:06;26.47;;;11.43;;
71503;SDS011;59323;50.874;7.028;2023-06-01T07:51:32;26.73;;;11.15;;
71503;SDS011;59323;50.874;7.028;2023-06-01T07:53:57;22.60;;;10.97;;
71503;SDS011;59323;50.874;7.028;2023-06-01T07:56:24;25.40;;;11.35;;
71503;SDS011;59323;50.874;7.028;2023-06-01T07:58:56;20.77;;;10.57;;
71503;SDS011;59323;50.874;7.028;2023-06-01T08:01:21;25.30;;;11.17;;
71503;SDS011;59323;50.874;7.028;2023-06-01T08:03:47;24.63;;;11.37;;
71503;SDS011;59323;50.874;7.028;2023-06-01T08:06:12;24.80;;;10.90;;
71503;SDS011;59323;50.874;7.028;2023-06-01T08:08:47;27.30;;;12.10;;
71503;SDS011;59323;50.874;7.028;2023-06-01T08:11:33;27.50;;;10.90;;
71503;SDS011;59323;50.874;7.028;2023-06-01T08:13:59;24.48;;;11.77;;
71503;SDS011;59323;50.874;7.028;2023-06-01T08:16:32;26.40;;;11.60;;
71503;SDS011;59323;50.874;7.028;2023-06-01T08:18:58;26.70;;;11.27;;
71503;SDS011;59323;50.874;7.028;2023-06-01T08:21:24;28.20;;;12.37;;
71503;SDS011;59323;50.874;7.028;2023-06-01T08:23:50;22.63;;;10.55;;
71503;SDS011;59323;50.874;7.028;2023-06-01T08:26:22;24.80;;;12.38;;
71503;SDS011;59323;50.874;7.028;2023-06-01T08:28:48;22.92;;;10.68;;
71503;SDS011;59323;50.874;7.028;2023-06-01T08:31:24;22.75;;;11.63;;
71503;SDS011;59323;50.874;7.028;2023-06-01T08:33:50;27.73;;;12.67;;
71503;SDS011;59323;50.874;7.028;2023-06-01T08:36:16;23.40;;;10.52;;
71503;SDS011;59323;50.874;7.028;2023-06-01T08:38:43;22.08;;;11.15;;
71503;SDS011;59323;50.874;7.028;2023-06-01T08:41:16;25.52;;;11.20;;
71503;SDS011;59323;50.874;7.028;2023-06-01T08:43:48;23.70;;;10.50;;
71503;SDS011;59323;50.874;7.028;2023-06-01T08:46:21;24.93;;;11.00;;
71503;SDS011;59323;50.874;7.028;2023-06-01T08:48:48;25.45;;;12.15;;
71503;SDS011;59323;50.874;7.028;2023-06-01T08:51:19;22.25;;;10.65;;
71503;SDS011;59323;50.874;7.028;2023-06-01T08:53:46;23.05;;;11.63;;
71503;SDS011;59323;50.874;7.028;2023-06-01T08:56:17;24.73;;;11.05;;
71503;SDS011;59323;50.874;7.028;2023-06-01T08:58:44;23.80;;;11.63;;
71503;SDS011;59323;50.874;7.028;2023-06-01T09:01:18;26.85;;;11.90;;
71503;SDS011;59323;50.874;7.028;2023-06-01T09:03:49;28.10;;;11.98;;
71503;SDS011;59323;50.874;7.028;2023-06-01T09:06:20;28.17;;;11.60;;
71503;SDS011;59323;50.874;7.028;2023-06-01T09:08:53;23.35;;;11.05;;
71503;SDS011;59323;50.874;7.028;2023-06-01T09:14:27;23.10;;;11.63;;
71503;SDS011;59323;50.874;7.028;2023-06-01T09:16:53;26.70;;;12.10;;
71503;SDS011;59323;50.874;7.028;2023-06-01T09:19:18;23.88;;;11.52;;
71503;SDS011;59323;50.874;7.028;2023-06-01T09:21:54;25.33;;;12.10;;
71503;SDS011;59323;50.874;7.028;2023-06-01T09:24:21;29.83;;;12.50;;
71503;SDS011;59323;50.874;7.028;2023-06-01T09:26:48;26.55;;;11.65;;
71503;SDS011;59323;50.874;7.028;2023-06-01T09:29:13;23.50;;;10.80;;
71503;SDS011;59323;50.874;7.028;2023-06-01T09:31:40;27.70;;;11.23;;
71503;SDS011;59323;50.874;7.028;2023-06-01T09:34:06;22.83;;;10.75;;
71503;SDS011;59323;50.874;7.028;2023-06-01T09:36:33;24.17;;;10.63;;
71503;SDS011;59323;50.874;7.028;2023-06-01T09:39:03;24.63;;;10.20;;
71503;SDS011;59323;50.874;7.028;2023-06-01T09:44:14;22.50;;;10.65;;
71503;SDS011;59323;50.874;7.028;2023-06-01T09:46:47;22.45;;;10.38;;
71503;SDS011;59323;50.874;7.028;2023-06-01T09:49:20;24.30;;;10.57;;
71503;SDS011;59323;50.874;7.028;2023-06-01T09:51:46;21.93;;;9.97;;
71503;SDS011;59323;50.874;7.028;2023-06-01T09:54:25;22.50;;;10.45;;
71503;SDS011;59323;50.874;7.028;2023-06-01T09:56:55;21.45;;;10.07;;
71503;SDS011;59323;50.874;7.028;2023-06-01T09:59:22;19.97;;;9.70;;
71503;SDS011;59323;50.874;7.028;2023-06-01T10:01:52;18.02;;;9.68;;
71503;SDS011;59323;50.874;7.028;2023-06-01T10:04:22;22.70;;;10.38;;
71503;SDS011;59323;50.874;7.028;2023-06-01T10:06:48;23.50;;;10.98;;
71503;SDS011;59323;50.874;7.028;2023-06-01T10:09:18;23.05;;;10.60;;
71503;SDS011;59323;50.874;7.028;2023-06-01T10:11:48;21.00;;;9.80;;
71503;SDS011;59323;50.874;7.028;2023-06-01T10:14:18;22.48;;;9.07;;
71503;SDS011;59323;50.874;7.028;2023-06-01T10:16:45;18.92;;;8.15;;
71503;SDS011;59323;50.874;7.028;2023-06-01T10:19:10;23.47;;;9.63;;
71503;SDS011;59323;50.874;7.028;2023-06-01T10:21:39;20.63;;;10.43;;
71503;SDS011;59323;50.874;7.028;2023-06-01T10:24:07;20.13;;;9.00;;
71503;SDS011;59323;50.874;7.028;2023-06-01T10:26:35;21.38;;;9.07;;
71503;SDS011;59323;50.874;7.028;2023-06-01T10:29:06;16.27;;;8.07;;
71503;SDS011;59323;50.874;7.028;2023-06-01T10:31:40;17.67;;;7.72;;
71503;SDS011;59323;50.874;7.028;2023-06-01T10:34:09;15.93;;;7.65;;
71503;SDS011;59323;50.874;7.028;2023-06-01T10:39:26;21.73;;;8.93;;
71503;SDS011;59323;50.874;7.028;2023-06-01T10:41:57;18.47;;;7.33;;
71503;SDS011;59323;50.874;7.028;2023-06-01T10:47:04;16.88;;;7.60;;
71503;SDS011;59323;50.874;7.028;2023-06-01T10:52:25;13.98;;;7.78;;
71503;SDS011;59323;50.874;7.028;2023-06-01T10:54:52;13.67;;;6.97;;
71503;SDS011;59323;50.874;7.028;2023-06-01T10:57:41;17.95;;;7.68;;
71503;SDS011;59323;50.874;7.028;2023-06-01T11:00:14;15.73;;;8.18;;
71503;SDS011;59323;50.874;7.028;2023-06-01T11:03:01;14.80;;;7.30;;
71503;SDS011;59323;50.874;7.028;2023-06-01T11:08:03;13.93;;;6.93;;
71503;SDS011;59323;50.874;7.028;2023-06-01T11:13:31;15.63;;;7.82;;
71503;SDS011;59323;50.874;7.028;2023-06-01T11:18:44;12.48;;;6.68;;
71503;SDS011;59323;50.874;7.028;2023-06-01T11:23:46;21.25;;;7.65;;
71503;SDS011;59323;50.874;7.028;2023-06-01T11:26:15;17.23;;;7.63;;
71503;SDS011;59323;50.874;7.028;2023-06-01T11:28:42;21.17;;;8.15;;
71503;SDS011;59323;50.874;7.028;2023-06-01T11:31:09;16.08;;;7.65;;
71503;SDS011;59323;50.874;7.028;2023-06-01T11:33:36;16.30;;;7.33;;
71503;SDS011;59323;50.874;7.028;2023-06-01T11:36:04;15.23;;;7.20;;
71503;SDS011;59323;50.874;7.028;2023-06-01T11:38:34;16.45;;;8.55;;
71503;SDS011;59323;50.874;7.028;2023-06-01T11:41:01;18.60;;;8.18;;
71503;SDS011;59323;50.874;7.028;2023-06-01T11:43:28;14.18;;;7.43;;
71503;SDS011;59323;50.874;7.028;2023-06-01T11:46:00;14.97;;;6.47;;
71503;SDS011;59323;50.874;7.028;2023-06-01T11:48:29;16.45;;;7.15;;
71503;SDS011;59323;50.874;7.028;2023-06-01T11:50:55;12.02;;;6.22;;
71503;SDS011;59323;50.874;7.028;2023-06-01T11:53:21;15.27;;;7.00;;
71503;SDS011;59323;50.874;7.028;2023-06-01T11:55:48;15.47;;;6.70;;
71503;SDS011;59323;50.874;7.028;2023-06-01T11:58:19;18.52;;;8.57;;
71503;SDS011;59323;50.874;7.028;2023-06-01T12:00:52;15.68;;;7.03;;
71503;SDS011;59323;50.874;7.028;2023-06-01T12:03:18;14.07;;;6.95;;
71503;SDS011;59323;50.874;7.028;2023-06-01T12:05:44;18.13;;;7.70;;
71503;SDS011;59323;50.874;7.028;2023-06-01T12:08:19;15.15;;;7.82;;
71503;SDS011;59323;50.874;7.028;2023-06-01T12:10:47;16.83;;;8.27;;
71503;SDS011;59323;50.874;7.028;2023-06-01T12:13:21;16.83;;;7.20;;
71503;SDS011;59323;50.874;7.028;2023-06-01T12:15:51;20.23;;;7.73;;
71503;SDS011;59323;50.874;7.028;2023-06-01T12:18:28;19.42;;;6.97;;
71503;SDS011;59323;50.874;7.028;2023-06-01T12:20:55;15.50;;;7.15;;
71503;SDS011;59323;50.874;7.028;2023-06-01T12:23:20;18.40;;;7.77;;
71503;SDS011;59323;50.874;7.028;2023-06-01T12:25:50;16.70;;;6.57;;
71503;SDS011;59323;50.874;7.028;2023-06-01T12:28:21;14.43;;;6.75;;
71503;SDS011;59323;50.874;7.028;2023-06-01T12:30:47;15.05;;;6.80;;
71503;SDS011;59323;50.874;7.028;2023-06-01T12:33:30;15.10;;;7.13;;
71503;SDS011;59323;50.874;7.028;2023-06-01T12:35:55;14.82;;;7.07;;
71503;SDS011;59323;50.874;7.028;2023-06-01T12:38:21;13.73;;;6.80;;
71503;SDS011;59323;50.874;7.028;2023-06-01T12:40:47;18.00;;;6.63;;
71503;SDS011;59323;50.874;7.028;2023-06-01T12:43:32;15.35;;;7.30;;
71503;SDS011;59323;50.874;7.028;2023-06-01T12:45:59;15.00;;;6.38;;
71503;SDS011;59323;50.874;7.028;2023-06-01T12:48:30;17.80;;;7.73;;
71503;SDS011;59323;50.874;7.028;2023-06-01T12:51:01;19.98;;;7.88;;
71503;SDS011;59323;50.874;7.028;2023-06-01T12:53:29;15.75;;;7.97;;
71503;SDS011;59323;50.874;7.028;2023-06-01T12:55:55;17.83;;;9.30;;
71503;SDS011;59323;50.874;7.028;2023-06-01T12:58:20;17.20;;;9.45;;
71503;SDS011;59323;50.874;7.028;2023-06-01T13:00:46;18.90;;;9.17;;
71503;SDS011;59323;50.874;7.028;2023-06-01T13:03:11;20.20;;;9.57;;
71503;SDS011;59323;50.874;7.028;2023-06-01T13:05:36;17.23;;;8.80;;
71503;SDS011;59323;50.874;7.028;2023-06-01T13:08:02;18.33;;;8.73;;
71503;SDS011;59323;50.874;7.028;2023-06-01T13:10:28;20.95;;;9.10;;
71503;SDS011;59323;50.874;7.028;2023-06-01T13:12:54;17.83;;;8.90;;
71503;SDS011;59323;50.874;7.028;2023-06-01T13:15:23;18.15;;;8.70;;
71503;SDS011;59323;50.874;7.028;2023-06-01T13:17:48;18.17;;;9.17;;
71503;SDS011;59323;50.874;7.028;2023-06-01T13:20:14;19.17;;;9.07;;
71503;SDS011;59323;50.874;7.028;2023-06-01T13:22:44;19.47;;;8.70;;
71503;SDS011;59323;50.874;7.028;2023-06-01T13:25:09;18.02;;;9.48;;
71503;SDS011;59323;50.874;7.028;2023-06-01T13:27:35;18.20;;;9.17;;
71503;SDS011;59323;50.874;7.028;2023-06-01T13:30:01;21.63;;;8.93;;
71503;SDS011;59323;50.874;7.028;2023-06-01T13:32:29;18.90;;;9.17;;
71503;SDS011;59323;50.874;7.028;2023-06-01T13:34:54;15.80;;;8.25;;
71503;SDS011;59323;50.874;7.028;2023-06-01T13:37:21;16.55;;;7.70;;
71503;SDS011;59323;50.874;7.028;2023-06-01T13:39:47;18.13;;;8.07;;
71503;SDS011;59323;50.874;7.028;2023-06-01T13:42:12;15.17;;;8.13;;
71503;SDS011;59323;50.874;7.028;2023-06-01T13:44:37;16.87;;;8.73;;
71503;SDS011;59323;50.874;7.028;2023-06-01T13:47:03;17.02;;;8.13;;
71503;SDS011;59323;50.874;7.028;2023-06-01T13:49:29;18.87;;;9.03;;
71503;SDS011;59323;50.874;7.028;2023-06-01T13:51:54;18.33;;;9.07;;
71503;SDS011;59323;50.874;7.028;2023-06-01T13:54:20;15.63;;;8.13;;
71503;SDS011;59323;50.874;7.028;2023-06-01T13:56:45;17.10;;;8.07;;
71503;SDS011;59323;50.874;7.028;2023-06-01T13:59:11;17.60;;;7.18;;
71503;SDS011;59323;50.874;7.028;2023-06-01T14:01:36;16.60;;;6.73;;
71503;SDS011;59323;50.874;7.028;2023-06-01T14:04:02;12.90;;;5.67;;
71503;SDS011;59323;50.874;7.028;2023-06-01T14:06:28;13.90;;;6.32;;
71503;SDS011;59323;50.874;7.028;2023-06-01T14:08:54;15.07;;;6.05;;
71503;SDS011;59323;50.874;7.028;2023-06-01T14:11:19;13.27;;;5.70;;
71503;SDS011;59323;50.874;7.028;2023-06-01T14:13:45;13.13;;;5.63;;
71503;SDS011;59323;50.874;7.028;2023-06-01T14:16:11;15.55;;;6.18;;
71503;SDS011;59323;50.874;7.028;2023-06-01T14:18:37;12.40;;;5.17;;
71503;SDS011;59323;50.874;7.028;2023-06-01T14:21:02;12.13;;;5.30;;
71503;SDS011;59323;50.874;7.028;2023-06-01T14:23:28;17.47;;;6.47;;
71503;SDS011;59323;50.874;7.028;2023-06-01T14:25:54;13.32;;;5.10;;
71503;SDS011;59323;50.874;7.028;2023-06-01T14:28:20;13.27;;;5.38;;
71503;SDS011;59323;50.874;7.028;2023-06-01T14:30:46;10.30;;;4.10;;
71503;SDS011;59323;50.874;7.028;2023-06-01T14:33:11;13.13;;;4.57;;
71503;SDS011;59323;50.874;7.028;2023-06-01T14:35:37;13.20;;;4.80;;
71503;SDS011;59323;50.874;7.028;2023-06-01T14:45:45;13.45;;;5.20;;
71503;SDS011;59323;50.874;7.028;2023-06-01T14:48:16;12.43;;;5.50;;
71503;SDS011;59323;50.874;7.028;2023-06-01T14:50:52;12.27;;;4.70;;
71503;SDS011;59323;50.874;7.028;2023-06-01T14:56:37;11.87;;;4.53;;
71503;SDS011;59323;50.874;7.028;2023-06-01T14:59:28;13.55;;;4.80;;
71503;SDS011;59323;50.874;7.028;2023-06-01T15:02:07;11.77;;;5.13;;
71503;SDS011;59323;50.874;7.028;2023-06-01T15:04:39;12.95;;;4.93;;
71503;SDS011;59323;50.874;7.028;2023-06-01T15:07:04;14.45;;;5.57;;
71503;SDS011;59323;50.874;7.028;2023-06-01T15:09:30;12.97;;;4.60;;
71503;SDS011;59323;50.874;7.028;2023-06-01T15:11:58;12.68;;;5.18;;
71503;SDS011;59323;50.874;7.028;2023-06-01T15:14:30;13.70;;;4.93;;
71503;SDS011;59323;50.874;7.028;2023-06-01T15:16:55;12.15;;;4.20;;
71503;SDS011;59323;50.874;7.028;2023-06-01T15:19:22;13.97;;;5.57;;
71503;SDS011;59323;50.874;7.028;2023-06-01T15:21:48;13.63;;;4.97;;
71503;SDS011;59323;50.874;7.028;2023-06-01T15:24:13;13.63;;;4.50;;
71503;SDS011;59323;50.874;7.028;2023-06-01T15:26:41;13.40;;;5.03;;
71503;SDS011;59323;50.874;7.028;2023-06-01T15:29:10;12.60;;;5.22;;
71503;SDS011;59323;50.874;7.028;2023-06-01T15:31:35;15.73;;;5.57;;